createdAt,value
2022-11-18T00:01:23.919Z,96879.44
2022-11-18T00:03:52.531Z,96883.00
2022-11-18T00:06:25.279Z,96878.53
2022-11-18T00:08:54.650Z,96873.88
2022-11-18T00:11:45.331Z,96881.66
2022-11-18T00:14:21.037Z,96884.25
2022-11-18T00:17:05.177Z,96892.16
2022-11-18T00:19:40.105Z,96894.25
2022-11-18T00:22:12.735Z,96892.34
2022-11-18T00:24:40.167Z,96895.03
2022-11-18T00:27:07.556Z,96899.91
2022-11-18T00:29:34.918Z,96899.56
2022-11-18T00:32:02.222Z,96901.50
2022-11-18T00:34:29.556Z,96895.22
2022-11-18T00:36:56.893Z,96907.88
2022-11-18T00:39:24.437Z,96921.94
2022-11-18T00:42:10.483Z,96915.59
2022-11-18T00:44:37.845Z,96916.09
2022-11-18T00:47:06.209Z,96924.75
2022-11-18T00:49:33.800Z,96936.09
2022-11-18T00:52:01.795Z,96932.56
2022-11-18T00:54:29.232Z,96929.75
2022-11-18T00:56:56.576Z,96942.59
2022-11-18T00:59:23.922Z,96937.13
2022-11-18T01:01:51.372Z,96956.41
2022-11-18T01:04:18.785Z,96959.56
2022-11-18T01:06:46.101Z,96966.59
2022-11-18T01:09:13.448Z,96951.69
2022-11-18T01:11:59.160Z,96960.44
2022-11-18T01:14:27.195Z,96962.78
2022-11-18T01:16:57.170Z,96964.44
2022-11-18T01:19:26.146Z,96967.50
2022-11-18T01:21:53.576Z,96972.63
2022-11-18T01:24:20.844Z,96971.41
2022-11-18T01:26:49.237Z,96980.16
2022-11-18T01:29:17.844Z,96981.72
2022-11-18T01:32:01.804Z,96980.56
2022-11-18T01:34:32.701Z,96992.78
2022-11-18T01:37:00.011Z,96998.25
2022-11-18T01:39:27.647Z,97004.81
2022-11-18T01:41:54.978Z,97003.66
2022-11-18T01:45:10.120Z,97011.53
2022-11-18T01:47:55.576Z,97009.56
2022-11-18T01:50:24.393Z,97016.38
2022-11-18T01:52:57.746Z,97038.72
2022-11-18T01:55:33.331Z,97023.81
2022-11-18T01:58:17.284Z,97034.88
2022-11-18T02:00:44.720Z,97049.06
2022-11-18T02:03:14.116Z,97041.19
2022-11-18T02:05:43.954Z,97039.63
2022-11-18T02:08:11.500Z,97037.25
2022-11-18T02:10:38.794Z,97053.41
2022-11-18T02:13:07.738Z,97045.91
2022-11-18T02:16:03.888Z,97058.13
2022-11-18T02:19:10.976Z,97053.00
2022-11-18T02:22:18.575Z,97054.97
2022-11-18T02:25:15.596Z,97059.28
2022-11-18T02:28:26.123Z,97062.03
2022-11-18T02:31:41.573Z,97061.66
2022-11-18T02:34:41.355Z,97065.88
2022-11-18T02:37:51.318Z,97069.50
2022-11-18T02:40:57.775Z,97071.47
2022-11-18T02:43:58.107Z,97080.09
2022-11-18T02:46:33.181Z,97086.00
2022-11-18T02:49:06.626Z,97074.63
2022-11-18T02:51:35.507Z,97084.88
2022-11-18T02:54:11.848Z,97077.38
2022-11-18T02:56:39.211Z,97085.22
2022-11-18T02:59:06.516Z,97068.72
2022-11-18T03:01:37.656Z,97079.34
2022-11-18T03:04:05.156Z,97087.19
2022-11-18T03:06:49.784Z,97101.72
2022-11-18T03:09:31.891Z,97103.59
2022-11-18T03:12:46.646Z,97109.56
2022-11-18T03:16:01.295Z,97110.66
2022-11-18T03:19:18.862Z,97109.97
2022-11-18T03:22:28.333Z,97122.41
2022-11-18T03:25:29.570Z,97125.16
2022-11-18T03:28:12.554Z,97127.34
2022-11-18T03:31:21.482Z,97133.81
2022-11-18T03:34:10.861Z,97132.16
2022-11-18T03:36:52.213Z,97134.84
2022-11-18T03:39:22.584Z,97139.16
2022-11-18T03:42:28.706Z,97127.50
2022-11-18T03:45:07.018Z,97141.19
2022-11-18T03:47:45.599Z,97138.75
2022-11-18T03:50:26.560Z,97144.47
2022-11-18T03:52:55.192Z,97149.91
2022-11-18T03:55:36.722Z,97154.56
2022-11-18T03:58:42.805Z,97152.63
2022-11-18T04:01:23.744Z,97158.97
2022-11-18T04:03:51.152Z,97164.91
2022-11-18T04:06:56.251Z,97169.94
2022-11-18T04:09:40.039Z,97168.91
2022-11-18T04:12:15.968Z,97157.31
2022-11-18T04:14:46.564Z,97173.56
2022-11-18T04:17:19.809Z,97169.34
2022-11-18T04:19:47.830Z,97177.97
2022-11-18T04:22:16.178Z,97182.59
2022-11-18T04:24:43.452Z,97190.53
2022-11-18T04:27:11.274Z,97190.13
2022-11-18T04:29:38.594Z,97193.28
2022-11-18T04:32:06.578Z,97200.41
2022-11-18T04:34:33.937Z,97207.56
2022-11-18T04:37:01.359Z,97210.25
2022-11-18T04:39:29.122Z,97220.09
2022-11-18T04:41:56.475Z,97212.69
2022-11-18T04:44:30.253Z,97224.88
2022-11-18T04:47:02.306Z,97220.03
2022-11-18T04:49:30.752Z,97220.25
2022-11-18T04:51:59.116Z,97210.09
2022-11-18T04:54:28.021Z,97221.47
2022-11-18T04:56:56.657Z,97223.06
2022-11-18T04:59:30.088Z,97221.88
2022-11-18T05:02:00.846Z,97226.25
2022-11-18T05:04:33.357Z,97223.41
2022-11-18T05:07:04.525Z,97225.97
2022-11-18T05:09:32.578Z,97213.16
2022-11-18T05:12:19.950Z,97225.06
2022-11-18T05:14:50.369Z,97225.91
2022-11-18T05:17:19.196Z,97223.59
2022-11-18T05:19:46.514Z,97236.53
2022-11-18T05:22:15.959Z,97229.16
2022-11-18T05:24:43.378Z,97240.81
2022-11-18T05:27:13.046Z,97239.78
2022-11-18T05:29:40.349Z,97247.47
2022-11-18T05:32:07.621Z,97244.13
2022-11-18T05:34:35.031Z,97248.84
2022-11-18T05:37:02.350Z,97249.78
2022-11-18T05:39:29.694Z,97258.13
2022-11-18T05:42:15.610Z,97272.22
2022-11-18T05:44:43.014Z,97285.56
2022-11-18T05:47:10.647Z,97281.59
2022-11-18T05:49:37.969Z,97283.34
2022-11-18T05:52:05.909Z,97285.00
2022-11-18T05:54:33.444Z,97290.59
2022-11-18T05:57:01.022Z,97292.25
2022-11-18T05:59:28.438Z,97284.94
2022-11-18T06:02:05.230Z,97296.06
2022-11-18T06:05:03.682Z,97301.25
2022-11-18T06:07:45.372Z,97291.22
2022-11-18T06:10:25.344Z,97293.63
2022-11-18T06:13:00.723Z,97303.78
2022-11-18T06:15:37.894Z,97305.34
2022-11-18T06:18:29.853Z,97303.72
2022-11-18T06:21:05.404Z,97309.81
2022-11-18T06:23:40.226Z,97308.97
2022-11-18T06:26:09.510Z,97313.75
2022-11-18T06:28:37.854Z,97309.13
2022-11-18T06:31:05.279Z,97313.53
2022-11-18T06:33:32.611Z,97316.81
2022-11-18T06:36:00.024Z,97316.94
2022-11-18T06:38:27.327Z,97312.63
2022-11-18T06:40:58.369Z,97321.56
2022-11-18T06:43:43.701Z,97324.69
2022-11-18T06:46:37.008Z,97334.31
2022-11-18T06:49:04.474Z,97339.06
2022-11-18T06:51:32.803Z,97335.53
2022-11-18T06:54:07.508Z,97339.50
2022-11-18T06:56:37.984Z,97350.75
2022-11-18T06:59:05.878Z,97353.34
2022-11-18T07:01:38.799Z,97363.69
2022-11-18T07:04:06.365Z,97362.81
2022-11-18T07:06:36.407Z,97361.97
2022-11-18T07:09:07.168Z,97367.94
2022-11-18T07:11:35.321Z,97373.91
2022-11-18T07:14:02.710Z,97378.22
2022-11-18T07:16:30.357Z,97380.31
2022-11-18T07:18:57.939Z,97387.03
2022-11-18T07:21:29.837Z,97391.00
2022-11-18T07:23:57.809Z,97392.91
2022-11-18T07:26:25.378Z,97396.19
2022-11-18T07:28:54.010Z,97404.69
2022-11-18T07:31:21.708Z,97405.91
2022-11-18T07:33:50.154Z,97409.28
2022-11-18T07:36:32.312Z,97403.72
2022-11-18T07:39:06.273Z,97411.84
2022-11-18T07:41:34.506Z,97409.06
2022-11-18T07:44:04.975Z,97418.81
2022-11-18T07:46:37.176Z,97420.28
2022-11-18T07:49:09.239Z,97418.13
2022-11-18T07:51:40.458Z,97412.22
2022-11-18T07:54:17.183Z,97419.56
2022-11-18T07:56:44.914Z,97425.56
2022-11-18T07:59:12.213Z,97416.94
2022-11-18T08:01:39.608Z,97414.22
2022-11-18T08:04:12.586Z,97419.72
2022-11-18T08:06:40.806Z,97425.22
2022-11-18T08:09:09.122Z,97437.97
2022-11-18T08:11:37.066Z,97430.13
2022-11-18T08:14:04.646Z,97431.81
2022-11-18T08:16:32.022Z,97447.09
2022-11-18T08:19:00.837Z,97442.16
2022-11-18T08:21:28.613Z,97442.34
2022-11-18T08:23:58.758Z,97446.91
2022-11-18T08:26:27.821Z,97451.19
2022-11-18T08:28:55.308Z,97461.53
2022-11-18T08:31:30.572Z,97454.25
2022-11-18T08:34:07.602Z,97452.94
2022-11-18T08:36:38.397Z,97454.25
2022-11-18T08:39:09.096Z,97457.44
2022-11-18T08:41:44.085Z,97452.78
2022-11-18T08:44:16.356Z,97463.81
2022-11-18T08:46:46.871Z,97467.38
2022-11-18T08:49:14.728Z,97464.44
2022-11-18T08:51:42.133Z,97472.66
2022-11-18T08:54:11.949Z,97476.69
2022-11-18T08:56:40.197Z,97477.31
2022-11-18T08:59:08.925Z,97481.31
2022-11-18T09:01:42.034Z,97479.56
2022-11-18T09:04:10.705Z,97482.63
2022-11-18T09:06:40.197Z,97483.41
2022-11-18T09:09:08.781Z,97479.22
2022-11-18T09:11:39.446Z,97483.75
2022-11-18T09:16:54.175Z,97494.13
2022-11-18T09:22:09.824Z,97493.69
2022-11-18T09:24:38.172Z,97494.72
2022-11-18T09:27:12.174Z,97484.25
2022-11-18T09:29:42.652Z,97503.78
2022-11-18T09:32:10.038Z,97504.59
2022-11-18T09:34:37.441Z,97507.66
2022-11-18T09:37:07.365Z,97521.31
2022-11-18T09:39:36.995Z,97517.25
2022-11-18T09:43:10.937Z,97520.44
2022-11-18T09:45:48.508Z,97523.66
2022-11-18T09:48:46.140Z,97534.84
2022-11-18T09:51:13.935Z,97535.88
2022-11-18T09:53:45.877Z,97539.69
2022-11-18T09:56:17.262Z,97542.56
2022-11-18T09:58:45.886Z,97541.94
2022-11-18T10:01:20.119Z,97541.22
2022-11-18T10:03:48.018Z,97543.97
2022-11-18T10:06:34.175Z,97546.78
2022-11-18T10:09:41.176Z,97554.50
2022-11-18T10:12:45.919Z,97542.94
2022-11-18T10:15:43.665Z,97549.66
2022-11-18T10:19:26.803Z,97554.38
2022-11-18T10:22:55.788Z,97563.97
2022-11-18T10:25:23.781Z,97554.28
2022-11-18T10:27:53.100Z,97567.06
2022-11-18T10:30:27.695Z,97560.84
2022-11-18T10:33:26.546Z,97565.72
2022-11-18T10:36:16.638Z,97557.81
2022-11-18T10:38:49.720Z,97553.97
2022-11-18T10:41:20.808Z,97552.41
2022-11-18T10:43:49.019Z,97559.59
2022-11-18T10:46:39.192Z,97549.47
2022-11-18T10:49:09.427Z,97548.88
2022-11-18T10:51:45.459Z,97549.34
2022-11-18T10:54:23.798Z,97553.06
2022-11-18T10:57:08.143Z,97559.09
2022-11-18T10:59:57.629Z,97553.06
2022-11-18T11:02:34.687Z,97558.59
2022-11-18T11:05:22.467Z,97555.66
2022-11-18T11:08:35.881Z,97554.47
2022-11-18T11:11:04.487Z,97558.72
2022-11-18T11:13:35.775Z,97545.03
2022-11-18T11:16:06.606Z,97561.88
2022-11-18T11:18:44.351Z,97544.69
2022-11-18T11:21:22.960Z,97558.63
2022-11-18T11:23:50.367Z,97560.28
2022-11-18T11:30:25.301Z,97548.50
2022-11-18T11:34:01.957Z,97556.34
2022-11-18T11:37:45.579Z,97553.69
2022-11-18T11:40:57.600Z,97564.38
2022-11-18T11:44:39.709Z,97561.44
2022-11-18T11:48:19.446Z,97572.81
2022-11-18T11:51:15.112Z,97557.59
2022-11-18T11:54:47.791Z,97575.59
2022-11-18T11:57:53.738Z,97567.47
2022-11-18T12:00:21.267Z,97555.69
2022-11-18T12:03:52.011Z,97563.66
2022-11-18T12:06:19.977Z,97563.00
2022-11-18T12:09:39.311Z,97576.16
2022-11-18T12:12:35.671Z,97570.53
2022-11-18T12:16:24.576Z,97566.91
2022-11-18T12:19:19.573Z,97576.75
2022-11-18T12:21:47.661Z,97569.34
2022-11-18T12:24:24.781Z,97582.03
2022-11-18T12:26:53.045Z,97562.28
2022-11-18T12:29:20.478Z,97569.38
2022-11-18T12:31:58.083Z,97574.13
2022-11-18T12:34:44.757Z,97567.44
2022-11-18T12:37:24.064Z,97562.28
2022-11-18T12:39:58.923Z,97562.69
2022-11-18T12:43:05.902Z,97563.84
2022-11-18T12:45:42.511Z,97564.63
2022-11-18T12:48:42.543Z,97561.09
2022-11-18T12:51:15.820Z,97568.50
2022-11-18T12:53:50.211Z,97562.28
2022-11-18T12:56:36.943Z,97578.84
2022-11-18T12:59:05.412Z,97575.25
2022-11-18T13:01:36.914Z,97587.44
2022-11-18T13:04:22.272Z,97572.03
2022-11-18T13:06:51.141Z,97574.84
2022-11-18T13:09:26.057Z,97582.03
2022-11-18T13:12:14.197Z,97579.97
2022-11-18T13:15:07.027Z,97582.00
2022-11-18T13:17:52.027Z,97588.31
2022-11-18T13:20:37.701Z,97576.09
2022-11-18T13:23:28.105Z,97572.16
2022-11-18T13:26:31.679Z,97579.50
2022-11-18T13:30:06.222Z,97576.28
2022-11-18T13:32:33.682Z,97574.31
2022-11-18T13:35:19.955Z,97574.63
2022-11-18T13:38:01.857Z,97580.09
2022-11-18T13:41:04.496Z,97574.28
2022-11-18T13:43:33.290Z,97574.78
2022-11-18T13:46:16.497Z,97583.44
2022-11-18T13:48:58.050Z,97579.41
2022-11-18T13:51:26.734Z,97573.75
2022-11-18T13:53:54.255Z,97576.69
2022-11-18T13:56:34.940Z,97587.34
2022-11-18T13:59:20.609Z,97590.13
2022-11-18T14:02:00.048Z,97579.00
2022-11-18T14:04:31.558Z,97584.97
2022-11-18T14:07:33.713Z,97588.22
2022-11-18T14:10:15.446Z,97589.00
2022-11-18T14:12:42.851Z,97592.97
2022-11-18T14:15:43.260Z,97590.97
2022-11-18T14:18:46.460Z,97590.56
2022-11-18T14:21:14.175Z,97593.75
2022-11-18T14:23:44.375Z,97591.34
2022-11-18T14:26:12.934Z,97598.53
2022-11-18T14:28:40.335Z,97599.97
2022-11-18T14:31:30.874Z,97599.28
2022-11-18T14:34:27.007Z,97600.47
2022-11-18T14:36:56.780Z,97606.25
2022-11-18T14:39:32.182Z,97611.78
2022-11-18T14:42:00.286Z,97616.47
2022-11-18T14:44:28.730Z,97614.09
2022-11-18T14:47:06.399Z,97605.97
2022-11-18T14:49:34.040Z,97613.44
2022-11-18T14:52:02.782Z,97610.28
2022-11-18T14:54:30.810Z,97602.66
2022-11-18T14:57:04.058Z,97604.47
2022-11-18T14:59:32.364Z,97618.03
2022-11-18T15:02:01.010Z,97613.59
2022-11-18T15:04:28.455Z,97611.19
2022-11-18T15:06:56.538Z,97610.53
2022-11-18T15:09:23.851Z,97615.53
2022-11-18T15:11:51.348Z,97607.78
2022-11-18T15:14:18.816Z,97614.78
2022-11-18T15:16:46.330Z,97610.88
2022-11-18T15:19:16.551Z,97612.72
2022-11-18T15:21:45.553Z,97614.59
2022-11-18T15:24:13.527Z,97616.19
2022-11-18T15:26:46.323Z,97618.78
2022-11-18T15:29:24.754Z,97624.75
2022-11-18T15:31:52.455Z,97631.03
2022-11-18T15:34:21.577Z,97625.06
2022-11-18T15:36:49.816Z,97629.44
2022-11-18T15:39:17.168Z,97632.13
2022-11-18T15:41:44.734Z,97631.66
2022-11-18T15:44:12.609Z,97639.13
2022-11-18T15:46:40.558Z,97641.53
2022-11-18T15:49:13.814Z,97634.44
2022-11-18T15:51:42.391Z,97632.47
2022-11-18T15:54:09.919Z,97623.91
2022-11-18T15:56:38.382Z,97637.38
2022-11-18T15:59:11.801Z,97645.09
2022-11-18T16:01:49.505Z,97650.19
2022-11-18T16:04:19.386Z,97649.78
2022-11-18T16:06:47.719Z,97651.88
2022-11-18T16:09:17.368Z,97651.53
2022-11-18T16:12:03.915Z,97648.88
2022-11-18T16:14:31.267Z,97644.09
2022-11-18T16:16:58.585Z,97651.06
2022-11-18T16:19:27.229Z,97651.00
2022-11-18T16:21:57.286Z,97657.94
2022-11-18T16:24:29.227Z,97654.50
2022-11-18T16:26:57.299Z,97659.00
2022-11-18T16:29:25.348Z,97655.06
2022-11-18T16:31:54.439Z,97651.50
2022-11-18T16:34:28.253Z,97668.88
2022-11-18T16:37:02.163Z,97667.59
2022-11-18T16:39:29.984Z,97668.75
2022-11-18T16:42:08.055Z,97672.75
2022-11-18T16:44:37.744Z,97681.31
2022-11-18T16:47:13.742Z,97684.22
2022-11-18T16:49:42.233Z,97683.03
2022-11-18T16:52:09.604Z,97684.19
2022-11-18T16:54:44.265Z,97689.31
2022-11-18T16:57:12.213Z,97682.03
2022-11-18T16:59:39.469Z,97688.69
2022-11-18T17:02:07.329Z,97677.19
2022-11-18T17:04:37.162Z,97676.72
2022-11-18T17:07:05.436Z,97681.53
2022-11-18T17:09:33.154Z,97691.25
2022-11-18T17:12:00.484Z,97688.16
2022-11-18T17:14:28.911Z,97694.19
2022-11-18T17:16:56.679Z,97688.88
2022-11-18T17:19:24.869Z,97688.09
2022-11-18T17:21:52.972Z,97684.44
2022-11-18T17:24:23.904Z,97686.81
2022-11-18T17:26:52.514Z,97685.75
2022-11-18T17:29:20.996Z,97699.16
2022-11-18T17:31:48.966Z,97694.94
2022-11-18T17:34:17.016Z,97706.16
2022-11-18T17:36:44.568Z,97698.25
2022-11-18T17:39:13.395Z,97706.41
2022-11-18T17:41:59.331Z,97711.69
2022-11-18T17:44:29.189Z,97715.84
2022-11-18T17:46:56.848Z,97718.53
2022-11-18T17:49:24.768Z,97712.38
2022-11-18T17:51:52.349Z,97725.66
2022-11-18T17:54:21.013Z,97724.41
2022-11-18T17:56:49.945Z,97724.31
2022-11-18T17:59:18.419Z,97721.03
2022-11-18T18:01:46.421Z,97731.00
2022-11-18T18:04:15.382Z,97725.91
2022-11-18T18:06:42.827Z,97739.13
2022-11-18T18:09:10.244Z,97739.16
2022-11-18T18:11:37.501Z,97731.69
2022-11-18T18:14:22.451Z,97735.75
2022-11-18T18:16:51.229Z,97734.00
2022-11-18T18:19:22.586Z,97740.06
2022-11-18T18:21:50.615Z,97742.97
2022-11-18T18:24:20.344Z,97743.69
2022-11-18T18:26:51.702Z,97744.16
2022-11-18T18:29:19.037Z,97748.44
2022-11-18T18:31:46.332Z,97753.94
2022-11-18T18:34:13.643Z,97758.22
2022-11-18T18:36:40.899Z,97756.16
2022-11-18T18:39:08.155Z,97748.84
2022-11-18T18:41:35.639Z,97750.88
2022-11-18T18:44:02.918Z,97756.03
2022-11-18T18:46:33.383Z,97752.41
2022-11-18T18:49:20.618Z,97734.25
2022-11-18T18:51:51.265Z,97752.34
2022-11-18T18:54:20.817Z,97755.50
2022-11-18T18:56:49.401Z,97749.31
2022-11-18T18:59:16.671Z,97749.25
2022-11-18T19:01:44.059Z,97753.16
2022-11-18T19:04:13.650Z,97750.84
2022-11-18T19:07:01.145Z,97753.22
2022-11-18T19:09:28.879Z,97750.84
2022-11-18T19:12:14.953Z,97733.34
2022-11-18T19:14:42.319Z,97749.63
2022-11-18T19:17:11.594Z,97749.09
2022-11-18T19:20:00.830Z,97740.41
2022-11-18T19:22:33.354Z,97747.34
2022-11-18T19:27:48.451Z,97741.97
2022-11-18T19:30:16.988Z,97746.09
2022-11-18T19:32:44.283Z,97754.00
2022-11-18T19:35:11.789Z,97743.63
2022-11-18T19:37:39.130Z,97751.16
2022-11-18T19:40:10.542Z,97757.53
2022-11-18T19:42:39.392Z,97749.03
2022-11-18T19:45:09.555Z,97749.81
2022-11-18T19:47:37.822Z,97757.94
2022-11-18T19:50:08.042Z,97755.13
2022-11-18T19:52:35.331Z,97743.34
2022-11-18T19:55:02.657Z,97753.19
2022-11-18T19:57:31.191Z,97761.16
2022-11-18T19:59:58.495Z,97753.50
2022-11-18T20:02:25.793Z,97764.66
2022-11-18T20:05:11.712Z,97760.31
2022-11-18T20:07:39.058Z,97757.59
2022-11-18T20:10:09.243Z,97760.81
2022-11-18T20:12:37.277Z,97766.97
2022-11-18T20:15:05.449Z,97770.03
2022-11-18T20:17:32.811Z,97771.66
2022-11-18T20:20:00.104Z,97763.09
2022-11-18T20:22:27.408Z,97759.41
2022-11-18T20:24:54.698Z,97760.56
2022-11-18T20:27:21.983Z,97761.59
2022-11-18T20:29:49.248Z,97768.63
2022-11-18T20:32:18.306Z,97773.06
2022-11-18T20:34:47.070Z,97774.66
2022-11-18T20:37:15.030Z,97776.16
2022-11-18T20:39:42.325Z,97783.75
2022-11-18T20:42:27.938Z,97781.25
2022-11-18T20:44:55.246Z,97779.19
2022-11-18T20:47:22.524Z,97787.91
2022-11-18T20:49:49.811Z,97787.72
2022-11-18T20:52:17.084Z,97785.78
2022-11-18T20:54:45.666Z,97786.28
2022-11-18T20:57:12.959Z,97788.00
2022-11-18T20:59:40.210Z,97785.47
2022-11-18T21:02:08.668Z,97770.78
2022-11-18T21:04:35.970Z,97787.16
2022-11-18T21:07:03.302Z,97788.50
2022-11-18T21:09:32.825Z,97791.19
2022-11-18T21:12:00.810Z,97790.00
2022-11-18T21:14:28.309Z,97784.25
2022-11-18T21:17:01.891Z,97794.75
2022-11-18T21:19:32.841Z,97791.13
2022-11-18T21:22:00.350Z,97793.06
2022-11-18T21:24:31.954Z,97794.75
2022-11-18T21:27:01.846Z,97796.84
2022-11-18T21:29:32.513Z,97803.47
2022-11-18T21:32:01.453Z,97801.50
2022-11-18T21:34:30.233Z,97804.41
2022-11-18T21:36:58.196Z,97805.34
2022-11-18T21:39:25.930Z,97804.28
2022-11-18T21:41:56.586Z,97803.38
2022-11-18T21:44:28.061Z,97808.16
2022-11-18T21:46:56.403Z,97813.00
2022-11-18T21:49:23.958Z,97807.44
2022-11-18T21:51:51.341Z,97806.03
2022-11-18T21:54:18.716Z,97807.69
2022-11-18T21:56:46.047Z,97802.00
2022-11-18T21:59:13.549Z,97804.75
2022-11-18T22:01:40.816Z,97801.41
2022-11-18T22:04:08.175Z,97800.22
2022-11-18T22:06:36.428Z,97806.44
2022-11-18T22:09:06.047Z,97796.19
2022-11-18T22:11:33.438Z,97805.06
2022-11-18T22:14:01.933Z,97805.72
2022-11-18T22:16:29.326Z,97805.56
2022-11-18T22:19:01.424Z,97801.28
2022-11-18T22:21:31.155Z,97803.63
2022-11-18T22:24:00.875Z,97808.22
2022-11-18T22:26:29.463Z,97814.56
2022-11-18T22:28:58.493Z,97812.09
2022-11-18T22:31:28.499Z,97805.84
2022-11-18T22:33:57.050Z,97809.88
2022-11-18T22:36:27.513Z,97799.91
2022-11-18T22:38:55.424Z,97806.59
2022-11-18T22:41:48.135Z,97812.53
2022-11-18T22:44:17.844Z,97810.44
2022-11-18T22:46:46.607Z,97810.53
2022-11-18T22:49:14.183Z,97804.00
2022-11-18T22:51:41.510Z,97805.06
2022-11-18T22:54:37.600Z,97813.44
2022-11-18T22:56:57.402Z,97803.31
2022-11-18T22:59:25.026Z,97814.34
2022-11-18T23:01:52.908Z,97806.91
2022-11-18T23:04:20.441Z,97813.50
2022-11-18T23:06:49.628Z,97800.59
2022-11-18T23:09:17.757Z,97809.56
2022-11-18T23:12:04.163Z,97804.38
2022-11-18T23:14:31.698Z,97808.59
2022-11-18T23:16:59.594Z,97808.81
2022-11-18T23:19:26.880Z,97805.03
2022-11-18T23:21:54.145Z,97805.34
2022-11-18T23:24:21.489Z,97810.53
2022-11-18T23:26:48.801Z,97805.56
2022-11-18T23:29:17.093Z,97805.31
2022-11-18T23:31:45.532Z,97807.53
2022-11-18T23:34:16.475Z,97804.72
2022-11-18T23:36:44.063Z,97815.06
2022-11-18T23:39:11.818Z,97805.00
2022-11-18T23:41:40.189Z,97810.00
2022-11-18T23:44:07.583Z,97807.59
2022-11-18T23:46:35.287Z,97810.16
2022-11-18T23:49:05.093Z,97816.22
2022-11-18T23:51:32.367Z,97802.56
2022-11-18T23:53:59.670Z,97804.41
2022-11-18T23:56:28.056Z,97798.97
2022-11-18T23:58:56.965Z,97801.72
